شیراز, ایران

01:22 AM IRST on اكتبر 01, 2014 (GMT +0330)
Shahid Dastghaib International | Change Station
CLOSE
Current Station
Airport
Location: Shiraz,
Elevation: 4869 ft
Nearby Weather Stations

Elev 4869 ft 29.54 °N, 52.59 °E | Updated 22 minutes ago

Clear
صاف
70 °F
Feels Like 70 °F
N
5
باد متغير باد from NNW

امروز
High -- | Low -- °F
--% Chance of Precip.
دیروز
High -- | Low -- °F
Precip. -- در
5:52 AM 5:45 PM
Waxing Crescent, 40% visible
فشار 30.12 در
ديد -9999.0 مايل، ميل (در برابر كيلومتر
ابری
قطره شبنم 36 °F
رطوبت 28%
بارش باران 0.00 در
برف عمیق Not available.
مادون قرمز Not available.
Pollen Not available.
تمیزی هوا Not available.
Flu Activity Not available.
METAR OISS 302130Z 33004KT CAVOK 21/02 Q1020 A3014

More Conditions Fewer Conditions

فشار 30.12 در
ديد -9999.0 مايل، ميل (در برابر كيلومتر
ابری
قطره شبنم 36 °F
رطوبت 28%
بارش باران 0.00 در
برف عمیق Not available.
مادون قرمز Not available.
Pollen Not available.
تمیزی هوا Not available.
Flu Activity Not available.
METAR OISS 302130Z 33004KT CAVOK 21/02 Q1020 A3014

More Conditions Fewer Conditions

10-Day Weather Forecast

Almanac

ستاره شناسی

Oct. 01, 2014 Rise Set
وقت حقیقی 5:52 AM IRST 5:45 PM IRST
تاریک و روشن اجتماعی 5:28 AM IRST 6:09 PM IRST
تاریک روشن دریایی 5:01 AM IRST 6:37 PM IRST
شفق و فلق نجومی 4:33 AM IRST 7:04 PM IRST
ماه 12:13 PM IRST (10/1) 11:11 PM IRST (10/1)
میزان روشنایی روز 12h 40m
طول روز
11h 52m
Tomorrow will be 1m 46s shorter.
Waxing Crescent, 40% of the Moon is Illuminated
Sep 30
Waxing Crescent
Oct 1
ربع اول
Oct 8
ماه کامل
Oct 15
ربع آخر
Oct 23
New

Yesterday's Extremes

Country Highs Country Lows

Community

WunderPhotos

Upload Photos

1,757,755 photos uploaded!

Nearby

تمیزی هوا

Not available.

عمق برف

Not available.

Earthquake Activity

شهر Distance Mag. Time & Date
No recent earthquake activity has been reported nearby.
Minimum magnitude displayed is 2.5.

Coastal Water Temperatures

منطقه درجه حرارت
No Stations Reporting

Nearby Weather Stations